Erie, Kansas
Current Conditions -  °F | °C
As of 3:52 AM on Saturday 25 Oct 2014 (Local Time) from KCNU Reporting Station
Haze Haze  
Wind Chill: 59°   Ceiling: Unl
Heat Index: 59°   Visibility: 4mi
Dew Point: 58°   Wind: 3mph
Humidity: 96%   Direction: 190°S
Pressure: 30.03"   Gusts: NA
Location:  37.57°N, 95.24°W
Report Text: KCNU 250852Z AUTO 19003KT 4SM BR CLR 15/14 A3003 RMK AO2 SLP161 T01500144 50003
Loading
Personal Weather Stations






























Interactive Weather Map New forecast layout! Learn more

10-Day Weather Forecast

Advertisements
Track Severe Weather on mobile